Vremea acum in Segarcea - Romania

Vrei sa afli care e starea vremii acum in Dolj - Romania? Dorim sa iti furnizam starea vremii pentru Dolj - Romania. Starea vremii Dolj - Romania pentru astazi.

Vremea acum in Segarcea

Temperatura: 9 °C

Este: Senin
Se simte ca: 8.7 °C
Innorat: 0 %
Precipitatii: 0 %
Presiune atmosferica: 1015 hPa
Umiditate: 81%
Vizibilitate: 10 km
Vantul bate din NNW cu 4.7 km/h

Evolutia vremii in Segarcea pe ore

Ora: 04:00
Senin
Temperatura: 11.9°C
Sansa de precipitatii: 0%
Ora Descriere Temp Se simte Precipitatii Umiditate Vant
00:00Senin14.2°14.4°0%63%WNW 5.8 KM/H
01:00Senin13.6°13.5°0%66%W 6.8 KM/H
02:00Senin12.8°12.5°0%70%W 6.8 KM/H
03:00Senin12.2°12°0%72%W 6.1 KM/H
04:00Senin11.9°12.1°0%74%WNW 4.7 KM/H
05:00Senin11.8°0%81%NNW 4.7 KM/H
06:00Senin11.5°11.2°0%78%NNW 5.8 KM/H
07:00Senin12.1°12.1°0%79%N 5 KM/H
08:00Senin13.8°13.8°0%71%NE 2.5 KM/H
09:00Senin15.7°15.7°0%65%E 5.4 KM/H
10:00Senin17.6°17.6°0%59%SE 6.1 KM/H
11:00Senin19.3°19.3°0%54%SSE 6.8 KM/H
12:00Senin20.8°20.8°0%50%S 7.6 KM/H
13:00Senin22.1°24.3°0%46%SSW 8.6 KM/H
14:00Senin23.1°24.4°0%41%SSW 9.7 KM/H
15:00Senin23.7°24.5°0%38%SSW 9.7 KM/H
16:00Senin23.9°24.5°0%36%SSW 9.4 KM/H
17:00Senin23.9°24.4°0%35%SSW 9 KM/H
18:00Senin23.6°24.4°0%36%SSW 9.4 KM/H
19:00Senin22.5°24.5°0%48%S 7.2 KM/H
20:00Senin20.1°20.1°0%53%S 8.3 KM/H
21:00Senin18°18°0%56%S 9 KM/H
22:00Senin16.9°16.9°0%60%S 9.7 KM/H
23:00Senin16.1°16.1°0%64%S 10.1 KM/H




tutorials